This is the latest recevied weather packets stored in our database for station/object SQ7ACP-3. If no packets are shown the sender has not sent any weather packets the latest 1 day(s).
| Time | Temp. | Humidity | Pressure | Rain* | Wind** | Luminosity | Snow |
|---|---|---|---|---|---|---|---|
| 1778056095 | 20° C | 54% | 1004.7 hPa | 0 mm | - | - | - |
| 1778054278 | 18.89° C | 57% | 1004.6 hPa | 0 mm | - | - | - |
| 1778053666 | 19.44° C | 57% | 1004.6 hPa | 0 mm | - | - | - |
| 1778053064 | 17.78° C | 58% | 1004.4 hPa | 0 mm | - | - | - |
| 1778050666 | 18.33° C | 58% | 1004.5 hPa | 0 mm | - | - | - |
| 1778048841 | 17.22° C | 58% | 1004.5 hPa | 0 mm | - | - | - |
| 1778047516 | 17.22° C | 58% | 1004.4 hPa | 0 mm | - | - | - |
| 1778046916 | 16.67° C | 57% | 1004.5 hPa | 0 mm | - | - | - |
| 1778046309 | 15.56° C | 60% | 1004.4 hPa | 0 mm | - | - | - |
| 1778043890 | 12.78° C | 65% | 1004.6 hPa | 0 mm | - | - | - |
| 1778042065 | 10° C | 75% | 1004.6 hPa | 0 mm | - | - | - |
| 1778040863 | 9.44° C | 77% | 1004.6 hPa | 0 mm | - | - | - |
| 1778040241 | 9.44° C | 75% | 1004.5 hPa | 0 mm | - | - | - |
| 1778039628 | 8.89° C | 76% | 1004.5 hPa | 0 mm | - | - | - |
| 1778039019 | 8.89° C | 77% | 1004.4 hPa | 0 mm | - | - | - |
| 1778038416 | 8.89° C | 77% | 1004.4 hPa | 0 mm | - | - | - |
| 1778037803 | 8.89° C | 77% | 1004.5 hPa | 0 mm | - | - | - |
| 1778037203 | 8.89° C | 77% | 1004.5 hPa | 0 mm | - | - | - |
| 1778036590 | 8.89° C | 76% | 1004.6 hPa | 0 mm | - | - | - |
| 1778035990 | 8.89° C | 75% | 1004.7 hPa | 0 mm | - | - | - |
| 1778035378 | 9.44° C | 74% | 1004.7 hPa | 0 mm | - | - | - |
| 1778034766 | 9.44° C | 74% | 1004.7 hPa | 0 mm | - | - | - |
| 1778034153 | 9.44° C | 73% | 1004.7 hPa | 0 mm | - | - | - |
| 1778033540 | 9.44° C | 74% | 1004.8 hPa | 0 mm | - | - | - |
| 1778024016 | 12.22° C | 63% | 1005.3 hPa | 0 mm | - | - | - |
* Rain latest hour (hover to see other rain measurements)
** Current wind speed in m/s (hover to see current wind gust speed)